Time;durP1;ratioP1;P1;durP2;ratioP2;P2;SDS_P1;SDS_P2;PMS_P1;PMS_P2;Temp;Humidity;BMP_temperature;BMP_pressure;BME280_temperature;BME280_humidity;BME280_pressure;Samples;Min_cycle;Max_cycle;Signal;HPM_P1;HPM_P2
2023/09/15 00:02:25;;;;;;;7.07;3.20;;;14.20;99.90;;;;;;4995295;28;20486;-49
2023/09/15 00:04:51;;;;;;;5.60;2.30;;;14.10;99.90;;;;;;4995040;28;20072;-49
2023/09/15 00:07:17;;;;;;;3.95;2.97;;;14.10;99.90;;;;;;4995145;28;20492;-51
2023/09/15 00:09:42;;;;;;;19.50;10.13;;;14.00;99.90;;;;;;4994007;28;20026;-49
2023/09/15 00:12:08;;;;;;;8.05;2.92;;;14.00;99.90;;;;;;4995207;28;20390;-53
2023/09/15 00:14:34;;;;;;;6.97;3.50;;;14.00;99.90;;;;;;4994803;28;20396;-47
2023/09/15 00:17:00;;;;;;;9.15;3.05;;;13.90;99.90;;;;;;4994917;28;20101;-44
2023/09/15 00:19:26;;;;;;;4.85;2.90;;;13.80;99.90;;;;;;4994844;28;20097;-49
2023/09/15 00:21:52;;;;;;;8.35;3.70;;;13.80;99.90;;;;;;4995033;28;20022;-47
2023/09/15 00:24:17;;;;;;;7.72;3.70;;;13.80;99.90;;;;;;4994755;28;20037;-49
2023/09/15 00:26:43;;;;;;;8.88;3.22;;;13.80;99.90;;;;;;4993414;28;20077;-47
2023/09/15 00:29:09;;;;;;;6.15;3.25;;;13.80;99.90;;;;;;4994474;28;20037;-51
2023/09/15 00:31:35;;;;;;;10.90;2.80;;;13.80;99.90;;;;;;4994862;28;20019;-47
2023/09/15 00:34:00;;;;;;;7.75;2.80;;;13.80;99.90;;;;;;4994601;28;20105;-48
2023/09/15 00:36:26;;;;;;;8.43;3.47;;;13.70;99.90;;;;;;4993220;28;20072;-48
2023/09/15 00:38:51;;;;;;;4.30;2.42;;;13.60;99.90;;;;;;4994574;28;20398;-48
2023/09/15 00:41:18;;;;;;;5.65;2.67;;;13.60;99.90;;;;;;4993301;28;20478;-52
2023/09/15 00:43:43;;;;;;;6.95;2.65;;;13.60;99.90;;;;;;4992954;28;20134;-51
2023/09/15 00:46:10;;;;;;;7.50;2.97;;;13.50;99.90;;;;;;4994544;28;20047;-47
2023/09/15 00:48:39;;;;;;;9.20;2.92;;;13.50;99.90;;;;;;4994595;28;20028;-50
2023/09/15 00:51:07;;;;;;;12.13;3.00;;;14.10;99.90;;;;;;4994564;28;20352;-48
2023/09/15 00:53:35;;;;;;;4.35;3.10;;;13.40;99.90;;;;;;4994323;28;20026;-50
2023/09/15 00:56:01;;;;;;;8.57;2.58;;;13.40;99.90;;;;;;4994183;28;20034;-47
2023/09/15 00:58:27;;;;;;;4.68;2.70;;;13.40;99.90;;;;;;4993935;28;20025;-47
2023/09/15 01:00:53;;;;;;;6.68;3.30;;;13.40;99.90;;;;;;4994312;28;20027;-48
2023/09/15 01:03:21;;;;;;;5.72;2.90;;;13.40;99.90;;;;;;4992939;28;20397;-48
2023/09/15 01:05:48;;;;;;;7.65;3.20;;;13.40;99.90;;;;;;4993998;28;20425;-49
2023/09/15 01:08:13;;;;;;;11.90;3.80;;;13.30;99.90;;;;;;4994117;28;20030;-48
2023/09/15 01:10:39;;;;;;;5.55;2.80;;;13.30;99.90;;;;;;4992775;28;20058;-49
2023/09/15 01:13:06;;;;;;;5.25;3.00;;;13.30;99.90;;;;;;4993851;28;20053;-51
2023/09/15 01:15:44;;;;;;;10.75;3.90;;;13.20;99.90;;;;;;4993741;28;20027;-48
2023/09/15 01:18:28;;;;;;;4.43;2.92;;;13.20;99.90;;;;;;4994138;28;20034;-47
2023/09/15 01:21:24;;;;;;;6.57;3.15;;;13.10;99.90;;;;;;4993976;28;20027;-47
2023/09/15 01:24:27;;;;;;;10.55;3.40;;;13.10;99.90;;;;;;4993707;28;20077;-49
2023/09/15 01:26:55;;;;;;;6.75;3.45;;;13.10;99.90;;;;;;4993696;28;20050;-51
2023/09/15 01:29:45;;;;;;;15.77;3.83;;;13.00;99.90;;;;;;4993456;28;20026;-51
2023/09/15 01:32:12;;;;;;;8.85;3.53;;;13.00;99.90;;;;;;4993963;28;20026;-47
2023/09/15 01:34:44;;;;;;;7.63;2.92;;;13.00;99.90;;;;;;4993384;28;20397;-47
2023/09/15 01:37:10;;;;;;;4.78;3.10;;;13.00;99.90;;;;;;4993696;28;20045;-48
2023/09/15 01:39:35;;;;;;;6.85;3.13;;;13.00;99.90;;;;;;4992029;28;20026;-48
2023/09/15 01:42:02;;;;;;;5.30;3.22;;;13.00;99.90;;;;;;4993491;28;20050;-45
2023/09/15 01:44:27;;;;;;;6.57;3.45;;;13.00;99.90;;;;;;4993222;28;20065;-53
2023/09/15 01:46:53;;;;;;;7.00;3.20;;;13.00;99.90;;;;;;4992303;28;20113;-50
2023/09/15 01:49:20;;;;;;;7.70;3.13;;;12.90;99.90;;;;;;4993487;28;20030;-51
2023/09/15 01:51:46;;;;;;;9.07;3.30;;;12.80;99.90;;;;;;4993462;28;20038;-49
2023/09/15 01:54:13;;;;;;;12.27;3.30;;;12.90;99.90;;;;;;4991510;28;20030;-54
2023/09/15 01:56:39;;;;;;;8.32;3.45;;;12.80;99.90;;;;;;4991847;28;20121;-47
2023/09/15 01:59:04;;;;;;;6.82;3.38;;;12.80;99.90;;;;;;4993143;28;20113;-48
2023/09/15 02:01:30;;;;;;;8.95;3.03;;;12.90;99.90;;;;;;4993457;28;20023;-52
2023/09/15 02:03:55;;;;;;;4.47;3.40;;;12.90;99.90;;;;;;4992944;28;20055;-46
2023/09/15 02:06:21;;;;;;;7.90;4.10;;;12.90;99.90;;;;;;4992746;28;20505;-48
2023/09/15 02:08:46;;;;;;;7.32;2.70;;;12.90;99.90;;;;;;4991718;28;20065;-51
2023/09/15 02:11:12;;;;;;;9.30;3.22;;;12.80;99.90;;;;;;4992925;28;20109;-49
2023/09/15 02:13:42;;;;;;;7.45;2.90;;;12.80;99.90;;;;;;4992831;28;20029;-46
2023/09/15 02:16:08;;;;;;;12.25;3.88;;;12.80;99.90;;;;;;4991804;28;20561;-47
2023/09/15 02:18:33;;;;;;;13.35;3.75;;;12.80;99.90;;;;;;4992616;28;20069;-48
2023/09/15 02:21:00;;;;;;;11.05;3.50;;;12.80;99.90;;;;;;4992810;28;20030;-48
2023/09/15 02:23:26;;;;;;;7.25;3.30;;;12.80;99.90;;;;;;4992522;28;20022;-47
2023/09/15 02:25:51;;;;;;;7.25;2.95;;;12.80;99.90;;;;;;4992485;28;20504;-49
2023/09/15 02:28:20;;;;;;;5.55;3.70;;;12.70;99.90;;;;;;4992305;28;20027;-48
2023/09/15 02:30:46;;;;;;;13.63;3.38;;;12.60;99.90;;;;;;4992700;28;20034;-47
2023/09/15 02:33:12;;;;;;;5.78;3.22;;;12.60;99.90;;;;;;4992500;28;20141;-46
2023/09/15 02:35:37;;;;;;;8.77;4.90;;;12.40;99.90;;;;;;4991219;28;20113;-50
2023/09/15 02:38:03;;;;;;;4.60;3.00;;;12.40;99.90;;;;;;4992438;28;20030;-46
2023/09/15 02:40:29;;;;;;;7.93;3.47;;;12.30;99.90;;;;;;4992446;28;20030;-48
2023/09/15 02:42:55;;;;;;;7.95;2.92;;;12.30;99.90;;;;;;4992472;28;20474;-48
2023/09/15 02:45:20;;;;;;;7.45;3.88;;;12.20;99.90;;;;;;4992236;28;20118;-46
2023/09/15 02:47:46;;;;;;;12.07;3.35;;;12.10;99.90;;;;;;4992146;28;20029;-47
2023/09/15 02:50:11;;;;;;;5.88;3.22;;;12.10;99.90;;;;;;4992434;28;20034;-47
2023/09/15 02:52:37;;;;;;;11.38;3.30;;;12.10;99.90;;;;;;4992366;28;20026;-48
2023/09/15 02:55:05;;;;;;;6.43;3.10;;;12.00;99.90;;;;;;4990674;28;20037;-47
2023/09/15 02:57:31;;;;;;;5.90;3.38;;;12.00;99.90;;;;;;4990834;28;20030;-47
2023/09/15 02:59:57;;;;;;;8.85;3.47;;;12.10;99.90;;;;;;4992147;28;20025;-45
2023/09/15 03:02:23;;;;;;;7.45;3.63;;;12.00;99.90;;;;;;4992142;28;20029;-46
2023/09/15 03:04:49;;;;;;;5.78;3.50;;;12.10;99.90;;;;;;4991867;28;20038;-48
2023/09/15 03:07:15;;;;;;;5.35;2.92;;;12.10;99.90;;;;;;4991444;28;20509;-49
2023/09/15 03:09:41;;;;;;;6.35;3.05;;;12.00;99.90;;;;;;4992210;28;20100;-48
2023/09/15 03:12:07;;;;;;;10.88;3.50;;;12.00;99.90;;;;;;4992470;28;20030;-48
2023/09/15 03:14:33;;;;;;;7.65;3.58;;;12.10;99.90;;;;;;4992010;28;20549;-47
2023/09/15 03:16:58;;;;;;;7.30;3.33;;;12.10;99.90;;;;;;4991882;28;20044;-47
2023/09/15 03:19:24;;;;;;;7.50;3.97;;;12.10;99.90;;;;;;4991972;28;20034;-49
2023/09/15 03:21:50;;;;;;;9.05;3.45;;;12.10;99.90;;;;;;4991976;28;20046;-48
2023/09/15 03:24:16;;;;;;;7.50;3.38;;;12.10;99.90;;;;;;4991870;28;20492;-48
2023/09/15 03:26:42;;;;;;;10.13;3.75;;;12.10;99.90;;;;;;4990513;28;20026;-48
2023/09/15 03:29:08;;;;;;;10.70;3.22;;;12.20;99.90;;;;;;4991623;28;20026;-47
2023/09/15 03:31:34;;;;;;;7.63;3.13;;;12.20;99.90;;;;;;4991892;28;20041;-47
2023/09/15 03:33:59;;;;;;;7.82;3.78;;;12.30;99.90;;;;;;4991823;28;20513;-46
2023/09/15 03:36:29;;;;;;;6.75;3.22;;;12.30;99.90;;;;;;4990394;28;20030;-50
2023/09/15 03:38:55;;;;;;;6.85;2.97;;;12.30;99.90;;;;;;4991797;28;20022;-46
2023/09/15 03:41:24;;;;;;;5.55;3.03;;;12.30;99.90;;;;;;4991897;28;20061;-50
2023/09/15 03:43:49;;;;;;;7.03;3.88;;;12.30;99.90;;;;;;4991899;28;20026;-46
2023/09/15 03:46:15;;;;;;;6.55;3.42;;;12.20;99.90;;;;;;4991975;28;20026;-45
2023/09/15 03:48:41;;;;;;;8.10;3.38;;;12.20;99.90;;;;;;4991984;28;20030;-47
2023/09/15 03:51:06;;;;;;;5.70;3.22;;;12.20;99.90;;;;;;4991756;28;20153;-50
2023/09/15 03:53:32;;;;;;;8.68;3.85;;;12.20;99.90;;;;;;4991586;28;20398;-47
2023/09/15 03:55:57;;;;;;;5.72;3.60;;;12.20;99.90;;;;;;4991949;28;20030;-49
2023/09/15 03:58:23;;;;;;;9.02;3.20;;;12.20;99.90;;;;;;4991595;28;20069;-48
2023/09/15 04:00:48;;;;;;;7.53;3.55;;;12.20;99.90;;;;;;4991602;28;20037;-49
2023/09/15 04:03:14;;;;;;;6.15;3.53;;;12.20;99.90;;;;;;4991618;28;20508;-49
2023/09/15 04:05:40;;;;;;;8.88;3.90;;;12.20;99.90;;;;;;4991463;28;20022;-48
2023/09/15 04:08:05;;;;;;;6.22;3.63;;;12.20;99.90;;;;;;4991551;28;20030;-47
2023/09/15 04:10:31;;;;;;;6.20;3.53;;;12.20;99.90;;;;;;4991662;28;20030;-50
2023/09/15 04:12:56;;;;;;;5.20;3.40;;;12.20;99.90;;;;;;4991563;28;20487;-48
2023/09/15 04:15:21;;;;;;;8.43;3.78;;;12.20;99.90;;;;;;4991287;28;20026;-49
2023/09/15 04:17:47;;;;;;;6.13;3.47;;;12.20;99.90;;;;;;4992725;28;20490;-48
2023/09/15 04:20:13;;;;;;;5.28;3.90;;;12.20;99.90;;;;;;4994956;28;20375;-53
2023/09/15 04:22:40;;;;;;;8.02;4.00;;;12.20;99.90;;;;;;4993772;28;20022;-49
2023/09/15 04:25:07;;;;;;;9.82;3.90;;;12.20;99.90;;;;;;4994674;28;20049;-48
2023/09/15 04:27:33;;;;;;;6.60;3.75;;;12.10;99.90;;;;;;4994529;28;20022;-50
2023/09/15 04:30:00;;;;;;;8.85;4.72;;;12.10;99.90;;;;;;4993702;28;20035;-46
2023/09/15 04:32:26;;;;;;;8.85;3.97;;;12.10;99.90;;;;;;4994965;28;20030;-51
2023/09/15 04:34:52;;;;;;;7.00;3.70;;;12.10;99.90;;;;;;4995005;28;20018;-48
2023/09/15 04:37:21;;;;;;;5.88;3.55;;;12.10;99.90;;;;;;4994717;28;20030;-53
2023/09/15 04:39:49;;;;;;;9.88;4.50;;;12.10;99.90;;;;;;4993372;28;20034;-48
2023/09/15 04:42:15;;;;;;;6.93;4.30;;;12.00;99.90;;;;;;4994721;28;20438;-48
2023/09/15 04:44:41;;;;;;;8.63;4.20;;;12.00;99.90;;;;;;4994263;28;20065;-49
2023/09/15 04:47:07;;;;;;;6.97;4.20;;;12.00;99.90;;;;;;4994575;28;20042;-50
2023/09/15 04:49:32;;;;;;;10.40;4.30;;;12.00;99.90;;;;;;4993469;28;20498;-47
2023/09/15 04:51:58;;;;;;;7.70;4.38;;;12.00;99.90;;;;;;4993305;28;20032;-53
2023/09/15 04:54:24;;;;;;;13.93;4.65;;;12.00;99.90;;;;;;4993972;28;20042;-45
2023/09/15 04:56:50;;;;;;;7.15;4.30;;;12.00;99.90;;;;;;4994411;28;20027;-49
2023/09/15 04:59:15;;;;;;;7.57;4.22;;;12.00;99.90;;;;;;4993119;28;20037;-48
2023/09/15 05:01:42;;;;;;;8.02;4.45;;;12.00;99.90;;;;;;4994364;28;20114;-49
2023/09/15 05:04:08;;;;;;;12.60;5.47;;;12.00;99.90;;;;;;4994290;28;20023;-49
2023/09/15 05:06:33;;;;;;;6.32;4.35;;;12.10;99.90;;;;;;4994626;28;20086;-47
2023/09/15 05:08:59;;;;;;;11.48;4.53;;;12.10;99.90;;;;;;4994920;28;20056;-47
2023/09/15 05:11:24;;;;;;;6.30;3.70;;;12.10;99.90;;;;;;4994323;28;20034;-47
2023/09/15 05:13:50;;;;;;;9.65;4.45;;;12.10;99.90;;;;;;4992789;28;20453;-47
2023/09/15 05:16:17;;;;;;;6.65;4.05;;;12.10;99.90;;;;;;4993943;28;20120;-47
2023/09/15 05:18:43;;;;;;;7.32;4.22;;;12.10;99.90;;;;;;4984407;23;20043;-46
2023/09/15 05:21:08;;;;;;;5.95;4.00;;;12.10;99.90;;;;;;4955385;28;20031;-48
2023/09/15 05:23:34;;;;;;;6.15;4.13;;;12.10;99.90;;;;;;4955223;28;20031;-47
2023/09/15 05:26:00;;;;;;;5.80;3.90;;;12.10;99.90;;;;;;4955093;28;20099;-47
2023/09/15 05:28:25;;;;;;;8.55;4.30;;;12.10;99.90;;;;;;4967824;28;20035;-50
2023/09/15 05:30:57;;;;;;;6.07;3.75;;;12.20;99.90;;;;;;4973712;28;20098;-47
2023/09/15 05:33:22;;;;;;;9.13;4.13;;;12.20;99.90;;;;;;4974240;28;20022;-47
2023/09/15 05:35:48;;;;;;;9.95;5.05;;;12.20;99.90;;;;;;4974018;28;20110;-49
2023/09/15 05:38:14;;;;;;;10.18;3.88;;;12.30;99.90;;;;;;4972874;28;20034;-47
2023/09/15 05:40:40;;;;;;;9.20;4.57;;;12.40;99.90;;;;;;4974013;28;20491;-49
2023/09/15 05:43:05;;;;;;;7.28;5.13;;;12.40;99.90;;;;;;4973816;28;20047;-44
2023/09/15 05:45:31;;;;;;;10.95;4.18;;;12.50;99.90;;;;;;4974048;28;20065;-49
2023/09/15 05:47:56;;;;;;;9.18;4.40;;;12.50;99.90;;;;;;4972396;28;20065;-47
2023/09/15 05:50:23;;;;;;;13.88;4.75;;;12.50;99.90;;;;;;4973904;28;20501;-47
2023/09/15 05:52:49;;;;;;;9.57;4.70;;;12.50;99.90;;;;;;4973687;28;20073;-51
2023/09/15 05:55:15;;;;;;;9.23;4.82;;;12.60;99.90;;;;;;4973581;28;20035;-49
2023/09/15 05:57:40;;;;;;;9.05;3.95;;;12.70;99.90;;;;;;4973698;28;20407;-50
2023/09/15 06:00:06;;;;;;;8.15;4.03;;;12.70;99.90;;;;;;4973713;28;20026;-47
2023/09/15 06:02:32;;;;;;;9.23;4.95;;;12.80;99.90;;;;;;4973630;28;20022;-46
2023/09/15 06:04:59;;;;;;;13.18;4.63;;;12.80;99.90;;;;;;4973402;28;20018;-46
2023/09/15 06:07:24;;;;;;;11.38;4.57;;;12.90;99.90;;;;;;4971983;28;20029;-48
2023/09/15 06:09:50;;;;;;;10.45;5.18;;;12.90;99.90;;;;;;4975287;28;20034;-51
2023/09/15 06:12:15;;;;;;;9.70;3.78;;;13.00;99.90;;;;;;4991738;28;20409;-50
2023/09/15 06:14:41;;;;;;;9.07;4.10;;;13.10;99.90;;;;;;4971687;28;20035;-47
2023/09/15 06:17:06;;;;;;;15.45;4.90;;;13.10;99.90;;;;;;4973539;28;20031;-53
2023/09/15 06:19:32;;;;;;;10.82;4.80;;;13.20;99.90;;;;;;4975005;28;20067;-54
2023/09/15 06:21:57;;;;;;;10.02;4.90;;;13.30;99.90;;;;;;4978864;28;20057;-51
2023/09/15 06:24:23;;;;;;;9.23;4.68;;;13.30;99.90;;;;;;4976318;28;20387;-51
2023/09/15 06:26:48;;;;;;;8.30;5.18;;;13.30;99.90;;;;;;4975345;28;20081;-50
2023/09/15 06:29:15;;;;;;;8.75;4.75;;;13.40;99.90;;;;;;4982501;28;20375;-49
2023/09/15 06:31:41;;;;;;;12.27;5.10;;;13.40;99.90;;;;;;4992009;28;20058;-51
2023/09/15 06:34:07;;;;;;;9.40;4.78;;;13.50;99.90;;;;;;4995851;28;20034;-50
2023/09/15 06:36:33;;;;;;;11.18;6.18;;;13.50;99.90;;;;;;4997186;28;20053;-51
2023/09/15 06:38:58;;;;;;;7.45;4.93;;;13.50;99.90;;;;;;4973145;28;20023;-49
2023/09/15 06:41:24;;;;;;;7.20;4.93;;;13.60;99.90;;;;;;4974114;28;20023;-50
2023/09/15 06:43:49;;;;;;;11.10;5.30;;;13.80;99.90;;;;;;4974101;28;20046;-53
2023/09/15 06:46:21;;;;;;;8.90;4.40;;;14.10;99.90;;;;;;4974684;28;20505;-49
2023/09/15 06:48:47;;;;;;;7.35;4.88;;;14.50;99.90;;;;;;4973182;28;20023;-54
2023/09/15 06:51:13;;;;;;;7.15;4.45;;;14.90;99.90;;;;;;4973708;28;20347;-53
2023/09/15 06:53:38;;;;;;;5.82;4.30;;;15.30;99.90;;;;;;4973015;28;20074;-51
2023/09/15 06:56:04;;;;;;;8.98;5.68;;;15.70;99.90;;;;;;4971403;28;20470;-53
2023/09/15 06:58:29;;;;;;;6.55;4.40;;;16.50;99.90;;;;;;4980211;28;20038;-47
2023/09/15 07:00:55;;;;;;;6.47;4.43;;;17.20;99.90;;;;;;4991175;28;20181;-49
2023/09/15 07:03:22;;;;;;;7.78;4.15;;;17.70;99.90;;;;;;4988654;28;20027;-48
2023/09/15 07:05:47;;;;;;;4.65;4.15;;;18.10;99.90;;;;;;4982536;28;20470;-49
2023/09/15 07:08:13;;;;;;;4.65;3.80;;;18.60;99.90;;;;;;4972973;28;20102;-48
2023/09/15 07:10:38;;;;;;;6.13;4.25;;;19.00;99.90;;;;;;4972549;28;20119;-50
2023/09/15 07:13:04;;;;;;;7.40;4.00;;;19.50;99.90;;;;;;4972716;28;20103;-48
2023/09/15 07:15:32;;;;;;;12.55;4.30;;;20.10;99.90;;;;;;4973001;28;20034;-47
2023/09/15 07:17:58;;;;;;;7.63;4.38;;;20.50;99.90;;;;;;4974312;28;20494;-48
2023/09/15 07:20:24;;;;;;;9.95;4.35;;;20.30;99.90;;;;;;4973602;28;20042;-48
2023/09/15 07:22:49;;;;;;;9.50;4.10;;;20.30;99.90;;;;;;4972426;28;20023;-47
2023/09/15 07:25:15;;;;;;;11.48;3.78;;;20.30;99.90;;;;;;4979301;28;20394;-50
2023/09/15 07:27:40;;;;;;;5.65;3.53;;;20.70;99.90;;;;;;4975003;28;20034;-48
2023/09/15 07:30:07;;;;;;;5.43;3.40;;;21.00;99.90;;;;;;4975995;28;20041;-48
2023/09/15 07:32:33;;;;;;;5.22;4.25;;;21.50;99.90;;;;;;4991446;28;20105;-50
2023/09/15 07:34:59;;;;;;;4.65;3.65;;;21.90;99.90;;;;;;4991589;28;20490;-50
2023/09/15 07:37:26;;;;;;;7.35;4.22;;;21.90;99.90;;;;;;4991877;28;20022;-48
2023/09/15 07:39:51;;;;;;;4.85;4.07;;;22.10;99.90;;;;;;4991881;28;20030;-50
2023/09/15 07:42:17;;;;;;;5.70;3.60;;;22.10;99.90;;;;;;4991892;28;20052;-47
2023/09/15 07:44:45;;;;;;;5.90;3.90;;;21.90;99.90;;;;;;4991724;28;20023;-50
2023/09/15 07:47:14;;;;;;;5.43;4.20;;;21.80;99.90;;;;;;4991798;28;20015;-51
2023/09/15 07:49:39;;;;;;;11.70;4.50;;;21.80;99.90;;;;;;4991608;28;20031;-53
2023/09/15 07:52:05;;;;;;;8.43;4.05;;;22.20;99.90;;;;;;4991727;28;20394;-48
2023/09/15 07:54:31;;;;;;;4.35;3.70;;;22.70;99.90;;;;;;4995121;28;20560;-48
2023/09/15 07:56:56;;;;;;;9.27;4.15;;;23.20;99.90;;;;;;4995342;28;20031;-48
2023/09/15 07:59:22;;;;;;;7.85;4.60;;;23.20;99.90;;;;;;4995512;28;20034;-47
2023/09/15 08:01:47;;;;;;;6.85;3.88;;;23.00;99.90;;;;;;4995404;28;20198;-47
2023/09/15 08:04:13;;;;;;;7.63;4.07;;;22.80;99.90;;;;;;4995286;28;20207;-48
2023/09/15 08:06:38;;;;;;;6.25;4.03;;;22.60;99.90;;;;;;4995067;28;20034;-49
2023/09/15 08:09:04;;;;;;;5.55;4.45;;;22.40;99.90;;;;;;4995170;28;20049;-46
2023/09/15 08:11:34;;;;;;;12.07;5.35;;;22.70;99.90;;;;;;4991086;28;20105;-55
2023/09/15 08:14:00;;;;;;;9.85;4.95;;;22.60;99.90;;;;;;4966811;28;20121;-47
2023/09/15 08:16:26;;;;;;;6.95;5.35;;;22.00;99.90;;;;;;4975644;28;20098;-46
2023/09/15 08:18:51;;;;;;;9.07;5.35;;;21.40;99.90;;;;;;4974497;28;20117;-48
2023/09/15 08:21:18;;;;;;;7.57;5.60;;;20.40;99.90;;;;;;4975488;28;20066;-52
2023/09/15 08:23:44;;;;;;;11.45;6.20;;;19.80;99.90;;;;;;4975070;28;20082;-53
2023/09/15 08:26:09;;;;;;;7.75;5.55;;;19.30;99.90;;;;;;4982612;28;20030;-49
2023/09/15 08:28:35;;;;;;;6.95;5.18;;;18.80;99.90;;;;;;4975267;28;20026;-49
2023/09/15 08:31:00;;;;;;;11.82;6.20;;;18.50;99.90;;;;;;4978808;28;20023;-47
2023/09/15 08:33:27;;;;;;;11.30;5.72;;;18.50;99.90;;;;;;4975308;28;20026;-54
2023/09/15 08:35:52;;;;;;;6.65;5.70;;;18.50;99.90;;;;;;4981162;28;20427;-49
2023/09/15 08:38:18;;;;;;;7.10;6.30;;;18.50;99.90;;;;;;4975334;28;20069;-54
2023/09/15 08:40:51;;;;;;;10.43;5.53;;;18.40;99.90;;;;;;4975147;28;20106;-50
2023/09/15 08:43:17;;;;;;;8.90;5.35;;;18.50;99.90;;;;;;4973830;28;20023;-50
2023/09/15 08:45:47;;;;;;;8.25;5.00;;;19.30;99.90;;;;;;4974787;28;20084;-53
2023/09/15 08:48:21;;;;;;;8.10;5.25;;;20.50;99.90;;;;;;4974986;28;20073;-53
2023/09/15 08:50:47;;;;;;;5.82;4.53;;;21.90;99.90;;;;;;4975357;28;20034;-50
2023/09/15 08:53:14;;;;;;;7.20;4.55;;;22.70;99.90;;;;;;4974929;28;20026;-51
2023/09/15 08:55:40;;;;;;;9.43;5.00;;;23.50;99.90;;;;;;4983894;28;20166;-53
2023/09/15 08:58:07;;;;;;;5.78;4.25;;;24.30;99.90;;;;;;4973414;28;20077;-51
2023/09/15 09:00:33;;;;;;;12.82;4.85;;;24.90;99.90;;;;;;4974961;28;20402;-51
2023/09/15 09:03:00;;;;;;;4.68;4.28;;;25.50;99.00;;;;;;4984363;28;20023;-55
2023/09/15 09:05:27;;;;;;;5.30;4.82;;;25.70;98.20;;;;;;4992688;28;20029;-53
2023/09/15 09:07:55;;;;;;;6.85;4.50;;;25.90;98.20;;;;;;4994274;28;20023;-51
2023/09/15 09:10:21;;;;;;;6.97;4.63;;;26.10;98.20;;;;;;4994066;28;20517;-52
2023/09/15 09:12:47;;;;;;;8.73;4.93;;;26.20;97.30;;;;;;4992873;28;20544;-50
2023/09/15 09:15:15;;;;;;;7.18;4.25;;;26.10;97.00;;;;;;4990745;28;20071;-53
2023/09/15 09:17:41;;;;;;;5.30;4.72;;;26.50;97.20;;;;;;4993640;28;20038;-53
2023/09/15 09:20:08;;;;;;;4.57;4.05;;;26.50;96.60;;;;;;4993855;28;20394;-52
2023/09/15 09:22:34;;;;;;;4.40;3.90;;;26.50;96.80;;;;;;4981786;28;20038;-54
2023/09/15 09:25:00;;;;;;;6.43;4.50;;;26.60;96.80;;;;;;4974015;28;20026;-55
2023/09/15 09:27:33;;;;;;;5.60;4.72;;;26.40;96.80;;;;;;4973754;28;20516;-53
2023/09/15 09:29:59;;;;;;;9.40;7.07;;;26.10;96.80;;;;;;4972940;28;20093;-51
2023/09/15 09:32:24;;;;;;;10.90;7.07;;;25.30;97.40;;;;;;4973884;28;20031;-49
2023/09/15 09:34:50;;;;;;;35.47;26.52;;;25.30;98.00;;;;;;4972441;28;20027;-48
2023/09/15 09:37:17;;;;;;;7.13;5.60;;;24.80;98.40;;;;;;4977003;28;20439;-50
2023/09/15 09:39:44;;;;;;;7.50;4.47;;;24.60;98.90;;;;;;4973830;28;20093;-50
2023/09/15 09:42:11;;;;;;;5.03;4.53;;;24.50;99.80;;;;;;4973828;28;20030;-53
2023/09/15 09:44:37;;;;;;;5.45;4.70;;;24.20;99.90;;;;;;4981248;28;20037;-48
2023/09/15 09:47:09;;;;;;;8.35;5.15;;;24.30;99.90;;;;;;4973692;28;20022;-47
2023/09/15 09:49:36;;;;;;;6.00;4.80;;;24.30;99.90;;;;;;4973353;28;20035;-55
2023/09/15 09:52:03;;;;;;;8.82;5.25;;;24.50;99.80;;;;;;4979168;28;20022;-50
2023/09/15 09:54:31;;;;;;;5.07;4.57;;;24.60;99.40;;;;;;4969245;28;20085;-50
2023/09/15 09:56:57;;;;;;;9.90;5.07;;;24.50;99.70;;;;;;4972268;28;20022;-49
2023/09/15 09:59:22;;;;;;;8.82;5.25;;;24.40;99.50;;;;;;4971349;28;20026;-50
2023/09/15 10:01:48;;;;;;;7.68;5.35;;;24.20;99.90;;;;;;4973087;28;20447;-48
2023/09/15 10:04:13;;;;;;;9.13;5.90;;;23.80;99.90;;;;;;4973187;28;20026;-49
2023/09/15 10:06:39;;;;;;;9.00;5.40;;;23.60;99.90;;;;;;4973324;28;20031;-51
2023/09/15 10:09:06;;;;;;;7.88;5.57;;;23.50;99.90;;;;;;4973284;28;20027;-52
2023/09/15 10:11:35;;;;;;;7.65;4.82;;;23.50;99.90;;;;;;4973419;28;20132;-49
2023/09/15 10:14:04;;;;;;;8.05;5.60;;;23.60;99.90;;;;;;4974350;28;20061;-51
2023/09/15 10:16:34;;;;;;;6.15;5.53;;;23.60;99.90;;;;;;4972636;28;20402;-48
2023/09/15 10:19:04;;;;;;;9.00;5.65;;;23.40;99.90;;;;;;4972586;28;20086;-47
2023/09/15 10:21:32;;;;;;;6.13;5.47;;;23.50;99.90;;;;;;4973154;28;20112;-48
2023/09/15 10:24:06;;;;;;;5.63;5.13;;;23.20;99.90;;;;;;4971258;28;20486;-50
2023/09/15 10:26:32;;;;;;;6.13;5.18;;;23.10;99.90;;;;;;4991486;28;20050;-47
2023/09/15 10:28:59;;;;;;;7.13;5.25;;;22.80;99.90;;;;;;4992344;28;20026;-49
2023/09/15 10:31:24;;;;;;;7.13;5.60;;;23.00;99.90;;;;;;4992244;28;20077;-50
2023/09/15 10:33:50;;;;;;;8.20;5.05;;;22.90;99.90;;;;;;4992281;28;20050;-49
2023/09/15 10:36:17;;;;;;;8.50;5.65;;;22.90;99.90;;;;;;4992299;28;20022;-47
2023/09/15 10:38:45;;;;;;;7.75;5.82;;;22.90;99.90;;;;;;4992147;28;20050;-50
2023/09/15 10:41:11;;;;;;;6.88;6.22;;;22.90;99.90;;;;;;4992595;28;20133;-53
2023/09/15 10:43:49;;;;;;;6.53;5.28;;;22.80;99.90;;;;;;4990965;28;20026;-50
2023/09/15 10:46:15;;;;;;;6.45;4.78;;;22.80;99.90;;;;;;4992091;28;20018;-50
2023/09/15 10:48:44;;;;;;;9.00;5.30;;;23.00;99.90;;;;;;4991110;28;20022;-54
2023/09/15 10:51:10;;;;;;;5.82;5.20;;;23.00;99.90;;;;;;4973264;28;20126;-55
2023/09/15 10:53:43;;;;;;;6.15;4.78;;;22.90;99.90;;;;;;4978265;28;20362;-57
2023/09/15 10:56:09;;;;;;;5.95;4.75;;;22.70;99.90;;;;;;4991967;28;20507;-48
2023/09/15 10:58:35;;;;;;;8.48;5.35;;;22.70;99.90;;;;;;4992017;28;20478;-50
2023/09/15 11:01:01;;;;;;;7.50;4.53;;;22.70;99.90;;;;;;4990345;28;20089;-51
2023/09/15 11:03:28;;;;;;;9.85;4.65;;;22.70;99.90;;;;;;4991912;28;20485;-48
2023/09/15 11:05:55;;;;;;;7.85;4.97;;;22.70;99.90;;;;;;4990774;28;20025;-50
2023/09/15 11:08:22;;;;;;;5.47;4.50;;;22.80;99.90;;;;;;4991993;28;20026;-50
2023/09/15 11:10:56;;;;;;;5.72;4.07;;;22.80;99.90;;;;;;4991132;28;20030;-47
2023/09/15 11:13:22;;;;;;;12.13;4.03;;;22.90;99.90;;;;;;4991910;28;20031;-46
2023/09/15 11:15:49;;;;;;;8.88;3.80;;;22.90;99.90;;;;;;4991701;28;20509;-48
2023/09/15 11:18:14;;;;;;;5.50;4.10;;;22.70;99.90;;;;;;4992226;28;20048;-47
2023/09/15 11:20:40;;;;;;;3.72;3.42;;;22.60;99.90;;;;;;4992037;28;20057;-50
2023/09/15 11:23:06;;;;;;;3.80;3.47;;;22.60;99.90;;;;;;4992171;28;20034;-49
2023/09/15 11:25:32;;;;;;;7.03;3.70;;;22.70;99.90;;;;;;4977310;28;20030;-47
2023/09/15 11:28:00;;;;;;;10.90;5.72;;;22.70;99.90;;;;;;4991973;28;20053;-51
2023/09/15 11:30:26;;;;;;;18.92;8.75;;;22.60;99.90;;;;;;4996032;28;20458;-49
2023/09/15 11:32:54;;;;;;;19.15;12.38;;;22.60;99.90;;;;;;4996043;28;20108;-54
2023/09/15 11:35:20;;;;;;;4.40;3.75;;;22.60;99.90;;;;;;4995610;28;20549;-52
2023/09/15 11:37:47;;;;;;;5.97;3.90;;;22.60;99.90;;;;;;4992947;28;20513;-49
2023/09/15 11:40:22;;;;;;;5.90;3.33;;;22.60;99.90;;;;;;4995772;28;20022;-49
2023/09/15 11:42:56;;;;;;;8.80;3.92;;;22.70;99.90;;;;;;4995556;28;20498;-48
2023/09/15 11:45:25;;;;;;;4.72;3.45;;;22.70;99.90;;;;;;4976499;28;20041;-49
2023/09/15 11:47:51;;;;;;;3.88;3.45;;;22.80;99.90;;;;;;4976104;28;20014;-49
2023/09/15 11:50:17;;;;;;;5.85;2.65;;;22.80;99.90;;;;;;4976388;28;20406;-51
2023/09/15 11:52:44;;;;;;;4.22;3.25;;;22.70;99.90;;;;;;4974703;28;20034;-49
2023/09/15 11:55:20;;;;;;;11.85;3.15;;;22.70;99.90;;;;;;4976615;28;20038;-49
2023/09/15 11:57:47;;;;;;;4.82;3.13;;;22.70;99.90;;;;;;4984507;28;20034;-48
2023/09/15 12:00:17;;;;;;;7.80;3.63;;;22.80;99.90;;;;;;4995386;28;20026;-47
2023/09/15 12:02:47;;;;;;;3.50;2.90;;;22.80;99.90;;;;;;4995461;28;20022;-50
2023/09/15 12:05:18;;;;;;;3.13;2.88;;;22.80;99.90;;;;;;4995133;28;20486;-50
2023/09/15 12:07:44;;;;;;;4.53;3.60;;;22.80;99.90;;;;;;4995350;28;20383;-49
2023/09/15 12:10:21;;;;;;;4.25;2.90;;;22.80;99.90;;;;;;4995087;28;20035;-50
2023/09/15 12:12:47;;;;;;;3.88;3.47;;;22.80;99.90;;;;;;4993745;28;20026;-49
2023/09/15 12:15:14;;;;;;;5.25;3.03;;;22.90;99.90;;;;;;4994754;28;20088;-48
2023/09/15 12:17:42;;;;;;;4.68;3.72;;;22.90;99.90;;;;;;4993519;28;20470;-47
2023/09/15 12:20:08;;;;;;;3.15;2.90;;;22.90;99.90;;;;;;4988052;28;20042;-50
2023/09/15 12:22:44;;;;;;;3.20;2.70;;;23.00;99.90;;;;;;4974161;28;20026;-50
2023/09/15 12:25:11;;;;;;;57.63;46.70;;;23.00;99.90;;;;;;4973552;28;20023;-49
2023/09/15 12:27:40;;;;;;;5.72;3.97;;;23.10;99.90;;;;;;4974538;28;20023;-48
2023/09/15 12:30:10;;;;;;;37.38;25.52;;;23.00;99.90;;;;;;4975099;28;20038;-50
2023/09/15 12:32:37;;;;;;;2.40;2.20;;;23.10;99.90;;;;;;4974740;28;20029;-52
2023/09/15 12:35:08;;;;;;;7.03;2.30;;;23.20;99.20;;;;;;4975176;28;20034;-51
2023/09/15 12:37:34;;;;;;;2.85;2.55;;;23.20;99.20;;;;;;4975763;28;20647;-51
2023/09/15 12:40:00;;;;;;;2.67;2.47;;;23.20;99.80;;;;;;4976378;28;20030;-47
2023/09/15 12:42:26;;;;;;;2.60;2.40;;;23.30;98.90;;;;;;4994637;28;20018;-48
2023/09/15 12:44:51;;;;;;;4.15;2.40;;;23.30;99.30;;;;;;4982051;28;20423;-50